sensor_id;sensor_type;location;lat;lon;timestamp;pressure;altitude;pressure_sealevel;temperature;humidity
16595;BME280;8410;52.532;13.336;2023-03-14T00:01:19;98768.06;;;14.73;80.86
16595;BME280;8410;52.532;13.336;2023-03-14T00:03:47;98762.78;;;14.76;80.45
16595;BME280;8410;52.532;13.336;2023-03-14T00:06:15;98765.94;;;14.85;79.99
16595;BME280;8410;52.532;13.336;2023-03-14T00:08:43;98760.63;;;14.88;79.62
16595;BME280;8410;52.532;13.336;2023-03-14T00:11:14;98750.63;;;14.78;79.63
16595;BME280;8410;52.532;13.336;2023-03-14T00:13:42;98759.38;;;14.74;79.46
16595;BME280;8410;52.532;13.336;2023-03-14T00:16:12;98747.25;;;14.76;79.17
16595;BME280;8410;52.532;13.336;2023-03-14T00:18:40;98731.81;;;14.73;79.33
16595;BME280;8410;52.532;13.336;2023-03-14T00:21:08;98737.84;;;13.99;82.07
16595;BME280;8410;52.532;13.336;2023-03-14T00:23:38;98724.25;;;14.67;80.25
16595;BME280;8410;52.532;13.336;2023-03-14T00:26:07;98710.66;;;14.62;79.30
16595;BME280;8410;52.532;13.336;2023-03-14T00:28:35;98711.41;;;14.64;79.97
16595;BME280;8410;52.532;13.336;2023-03-14T00:31:04;98709.63;;;14.66;79.85
16595;BME280;8410;52.532;13.336;2023-03-14T00:33:33;98699.56;;;14.81;79.03
16595;BME280;8410;52.532;13.336;2023-03-14T00:36:03;98702.16;;;14.81;78.33
16595;BME280;8410;52.532;13.336;2023-03-14T00:38:32;98685.69;;;14.34;80.14
16595;BME280;8410;52.532;13.336;2023-03-14T00:41:02;98680.34;;;14.64;79.45
16595;BME280;8410;52.532;13.336;2023-03-14T00:43:30;98684.91;;;14.32;80.78
16595;BME280;8410;52.532;13.336;2023-03-14T00:45:58;98696.44;;;14.49;79.60
16595;BME280;8410;52.532;13.336;2023-03-14T00:48:26;98690.19;;;14.29;80.60
16595;BME280;8410;52.532;13.336;2023-03-14T00:50:54;98682.16;;;14.37;81.51
16595;BME280;8410;52.532;13.336;2023-03-14T00:53:22;98680.88;;;14.25;81.71
16595;BME280;8410;52.532;13.336;2023-03-14T00:55:50;98674.69;;;14.04;83.27
16595;BME280;8410;52.532;13.336;2023-03-14T00:58:18;98671.31;;;14.27;81.61
16595;BME280;8410;52.532;13.336;2023-03-14T01:00:45;98656.81;;;14.22;81.29
16595;BME280;8410;52.532;13.336;2023-03-14T01:03:14;98648.66;;;14.32;81.39
16595;BME280;8410;52.532;13.336;2023-03-14T01:05:42;98648.03;;;14.27;81.42
16595;BME280;8410;52.532;13.336;2023-03-14T01:08:10;98646.94;;;14.33;80.21
16595;BME280;8410;52.532;13.336;2023-03-14T01:10:39;98640.81;;;14.12;82.83
16595;BME280;8410;52.532;13.336;2023-03-14T01:13:07;98652.59;;;14.19;81.42
16595;BME280;8410;52.532;13.336;2023-03-14T01:15:36;98654.91;;;14.27;81.93
16595;BME280;8410;52.532;13.336;2023-03-14T01:18:04;98668.03;;;13.72;84.76
16595;BME280;8410;52.532;13.336;2023-03-14T01:20:32;98690.72;;;13.37;84.47
16595;BME280;8410;52.532;13.336;2023-03-14T01:22:59;98697.91;;;14.06;83.00
16595;BME280;8410;52.532;13.336;2023-03-14T01:25:28;98725.31;;;13.60;83.38
16595;BME280;8410;52.532;13.336;2023-03-14T01:27:56;98719.16;;;13.90;82.90
16595;BME280;8410;52.532;13.336;2023-03-14T01:30:23;98723.72;;;14.09;82.95
16595;BME280;8410;52.532;13.336;2023-03-14T01:32:51;98730.56;;;13.85;83.78
16595;BME280;8410;52.532;13.336;2023-03-14T01:35:18;98729.59;;;13.87;83.46
16595;BME280;8410;52.532;13.336;2023-03-14T01:37:46;98732.56;;;14.02;82.44
16595;BME280;8410;52.532;13.336;2023-03-14T01:40:13;98727.06;;;14.11;83.13
16595;BME280;8410;52.532;13.336;2023-03-14T01:42:54;98728.44;;;13.96;82.87
16595;BME280;8410;52.532;13.336;2023-03-14T01:48:31;98739.16;;;13.85;84.08
16595;BME280;8410;52.532;13.336;2023-03-14T01:51:01;98744.59;;;14.03;83.29
16595;BME280;8410;52.532;13.336;2023-03-14T01:53:29;98751.25;;;14.10;81.71
16595;BME280;8410;52.532;13.336;2023-03-14T01:55:57;98741.13;;;14.04;82.41
16595;BME280;8410;52.532;13.336;2023-03-14T01:58:27;98732.41;;;14.06;82.41
16595;BME280;8410;52.532;13.336;2023-03-14T02:00:58;98730.44;;;14.13;82.82
16595;BME280;8410;52.532;13.336;2023-03-14T02:03:26;98719.84;;;13.42;87.72
16595;BME280;8410;52.532;13.336;2023-03-14T02:05:58;98711.50;;;13.61;84.95
16595;BME280;8410;52.532;13.336;2023-03-14T02:08:27;98716.22;;;13.75;84.12
16595;BME280;8410;52.532;13.336;2023-03-14T02:10:55;98701.84;;;14.18;82.62
16595;BME280;8410;52.532;13.336;2023-03-14T02:13:22;98704.06;;;14.03;82.29
16595;BME280;8410;52.532;13.336;2023-03-14T02:15:51;98708.16;;;13.84;83.94
16595;BME280;8410;52.532;13.336;2023-03-14T02:18:19;98703.59;;;13.65;83.66
16595;BME280;8410;52.532;13.336;2023-03-14T02:20:50;98707.50;;;14.04;83.56
16595;BME280;8410;52.532;13.336;2023-03-14T02:23:26;98704.56;;;14.13;82.65
16595;BME280;8410;52.532;13.336;2023-03-14T02:26:00;98702.34;;;13.77;84.01
16595;BME280;8410;52.532;13.336;2023-03-14T02:28:31;98685.78;;;14.08;82.79
16595;BME280;8410;52.532;13.336;2023-03-14T02:30:59;98692.44;;;14.15;82.57
16595;BME280;8410;52.532;13.336;2023-03-14T02:33:27;98685.22;;;14.25;81.89
16595;BME280;8410;52.532;13.336;2023-03-14T02:35:56;98697.38;;;14.21;81.62
16595;BME280;8410;52.532;13.336;2023-03-14T02:38:29;98680.03;;;14.25;81.14
16595;BME280;8410;52.532;13.336;2023-03-14T02:40:59;98678.28;;;14.00;81.94
16595;BME280;8410;52.532;13.336;2023-03-14T02:43:27;98685.53;;;13.90;81.75
16595;BME280;8410;52.532;13.336;2023-03-14T02:45:55;98682.63;;;14.00;83.63
16595;BME280;8410;52.532;13.336;2023-03-14T02:48:25;98669.25;;;14.12;81.97
16595;BME280;8410;52.532;13.336;2023-03-14T02:50:54;98661.16;;;14.21;81.33
16595;BME280;8410;52.532;13.336;2023-03-14T02:53:25;98667.13;;;14.23;81.22
16595;BME280;8410;52.532;13.336;2023-03-14T02:55:53;98652.16;;;14.31;81.25
16595;BME280;8410;52.532;13.336;2023-03-14T02:58:21;98649.66;;;14.05;82.02
16595;BME280;8410;52.532;13.336;2023-03-14T03:00:48;98640.00;;;14.10;81.54
16595;BME280;8410;52.532;13.336;2023-03-14T03:03:17;98641.53;;;14.16;81.76
16595;BME280;8410;52.532;13.336;2023-03-14T03:05:48;98634.25;;;14.02;81.95
16595;BME280;8410;52.532;13.336;2023-03-14T03:08:17;98633.75;;;13.67;82.26
16595;BME280;8410;52.532;13.336;2023-03-14T03:10:44;98620.00;;;13.65;84.11
16595;BME280;8410;52.532;13.336;2023-03-14T03:13:12;98604.31;;;13.95;82.07
16595;BME280;8410;52.532;13.336;2023-03-14T03:15:40;98607.25;;;13.85;82.69
16595;BME280;8410;52.532;13.336;2023-03-14T03:18:07;98605.00;;;14.00;82.13
16595;BME280;8410;52.532;13.336;2023-03-14T03:20:37;98600.16;;;13.90;82.08
16595;BME280;8410;52.532;13.336;2023-03-14T03:23:04;98615.16;;;13.56;82.09
16595;BME280;8410;52.532;13.336;2023-03-14T03:25:32;98605.72;;;13.80;83.32
16595;BME280;8410;52.532;13.336;2023-03-14T03:28:01;98605.66;;;13.81;81.68
16595;BME280;8410;52.532;13.336;2023-03-14T03:30:37;98621.72;;;13.13;84.73
16595;BME280;8410;52.532;13.336;2023-03-14T03:33:05;98630.97;;;13.46;84.40
16595;BME280;8410;52.532;13.336;2023-03-14T03:35:32;98628.78;;;13.61;83.84
16595;BME280;8410;52.532;13.336;2023-03-14T03:38:01;98630.22;;;13.43;83.42
16595;BME280;8410;52.532;13.336;2023-03-14T03:40:29;98633.88;;;13.37;83.81
16595;BME280;8410;52.532;13.336;2023-03-14T03:42:56;98627.94;;;13.85;82.02
16595;BME280;8410;52.532;13.336;2023-03-14T03:45:23;98631.72;;;13.50;84.60
16595;BME280;8410;52.532;13.336;2023-03-14T03:47:51;98629.06;;;13.52;82.67
16595;BME280;8410;52.532;13.336;2023-03-14T03:50:18;98612.22;;;13.66;82.82
16595;BME280;8410;52.532;13.336;2023-03-14T03:52:46;98619.44;;;13.30;84.12
16595;BME280;8410;52.532;13.336;2023-03-14T03:55:15;98611.56;;;13.60;83.40
16595;BME280;8410;52.532;13.336;2023-03-14T03:57:42;98609.38;;;13.21;83.94
16595;BME280;8410;52.532;13.336;2023-03-14T04:00:11;98613.41;;;13.56;83.20
16595;BME280;8410;52.532;13.336;2023-03-14T04:02:39;98607.03;;;13.92;80.60
16595;BME280;8410;52.532;13.336;2023-03-14T04:05:07;98603.59;;;13.91;80.67
16595;BME280;8410;52.532;13.336;2023-03-14T04:07:35;98629.88;;;13.27;82.77
16595;BME280;8410;52.532;13.336;2023-03-14T04:10:03;98609.59;;;13.41;82.76
16595;BME280;8410;52.532;13.336;2023-03-14T04:12:32;98594.16;;;13.65;82.47
16595;BME280;8410;52.532;13.336;2023-03-14T04:14:59;98613.41;;;13.31;82.12
16595;BME280;8410;52.532;13.336;2023-03-14T04:17:27;98619.22;;;13.10;83.07
16595;BME280;8410;52.532;13.336;2023-03-14T04:19:54;98613.44;;;13.01;84.10
16595;BME280;8410;52.532;13.336;2023-03-14T04:22:21;98610.06;;;13.28;82.70
16595;BME280;8410;52.532;13.336;2023-03-14T04:24:49;98602.56;;;13.72;80.74
16595;BME280;8410;52.532;13.336;2023-03-14T04:27:16;98602.50;;;13.73;81.64
16595;BME280;8410;52.532;13.336;2023-03-14T04:29:45;98602.97;;;13.34;83.08
16595;BME280;8410;52.532;13.336;2023-03-14T04:32:12;98603.66;;;13.39;82.29
16595;BME280;8410;52.532;13.336;2023-03-14T04:34:41;98580.66;;;13.57;82.25
16595;BME280;8410;52.532;13.336;2023-03-14T04:37:08;98599.66;;;13.02;82.76
16595;BME280;8410;52.532;13.336;2023-03-14T04:39:35;98581.06;;;12.91;83.48
16595;BME280;8410;52.532;13.336;2023-03-14T04:42:03;98575.75;;;13.74;81.02
16595;BME280;8410;52.532;13.336;2023-03-14T04:44:32;98575.38;;;13.07;82.51
16595;BME280;8410;52.532;13.336;2023-03-14T04:47:00;98565.88;;;13.60;81.68
16595;BME280;8410;52.532;13.336;2023-03-14T04:49:28;98560.56;;;13.88;79.67
16595;BME280;8410;52.532;13.336;2023-03-14T04:51:55;98551.16;;;13.37;81.34
16595;BME280;8410;52.532;13.336;2023-03-14T04:54:23;98552.94;;;13.35;80.45
16595;BME280;8410;52.532;13.336;2023-03-14T04:56:50;98546.50;;;13.47;80.76
16595;BME280;8410;52.532;13.336;2023-03-14T04:59:17;98547.75;;;13.85;79.74
16595;BME280;8410;52.532;13.336;2023-03-14T05:01:45;98564.63;;;13.72;79.86
16595;BME280;8410;52.532;13.336;2023-03-14T05:04:15;98563.47;;;13.56;80.52
16595;BME280;8410;52.532;13.336;2023-03-14T05:06:43;98571.38;;;13.26;80.81
16595;BME280;8410;52.532;13.336;2023-03-14T05:09:10;98570.25;;;13.33;81.39
16595;BME280;8410;52.532;13.336;2023-03-14T05:11:38;98553.75;;;13.62;79.84
16595;BME280;8410;52.532;13.336;2023-03-14T05:14:05;98552.91;;;13.62;79.77
16595;BME280;8410;52.532;13.336;2023-03-14T05:16:32;98544.97;;;13.41;81.23
16595;BME280;8410;52.532;13.336;2023-03-14T05:19:00;98551.91;;;13.66;79.19
16595;BME280;8410;52.532;13.336;2023-03-14T05:21:29;98547.31;;;12.96;80.13
16595;BME280;8410;52.532;13.336;2023-03-14T05:23:57;98535.44;;;13.43;79.46
16595;BME280;8410;52.532;13.336;2023-03-14T05:26:24;98537.59;;;13.31;81.11
16595;BME280;8410;52.532;13.336;2023-03-14T05:28:51;98530.31;;;13.67;79.14
16595;BME280;8410;52.532;13.336;2023-03-14T05:31:19;98538.81;;;13.94;78.64
16595;BME280;8410;52.532;13.336;2023-03-14T05:33:46;98541.19;;;13.52;79.48
16595;BME280;8410;52.532;13.336;2023-03-14T05:36:14;98527.53;;;13.48;79.23
16595;BME280;8410;52.532;13.336;2023-03-14T05:38:43;98540.25;;;13.29;80.98
16595;BME280;8410;52.532;13.336;2023-03-14T05:41:10;98530.63;;;13.58;79.04
16595;BME280;8410;52.532;13.336;2023-03-14T05:43:37;98535.44;;;13.68;79.05
16595;BME280;8410;52.532;13.336;2023-03-14T05:46:05;98542.22;;;13.71;79.35
16595;BME280;8410;52.532;13.336;2023-03-14T05:48:33;98544.56;;;12.75;81.59
16595;BME280;8410;52.532;13.336;2023-03-14T05:51:00;98536.09;;;13.50;78.06
16595;BME280;8410;52.532;13.336;2023-03-14T05:53:28;98539.63;;;13.71;78.12
16595;BME280;8410;52.532;13.336;2023-03-14T05:55:57;98537.78;;;13.24;79.29
16595;BME280;8410;52.532;13.336;2023-03-14T05:58:25;98545.09;;;13.38;78.43
16595;BME280;8410;52.532;13.336;2023-03-14T06:00:52;98537.88;;;12.96;79.33
16595;BME280;8410;52.532;13.336;2023-03-14T06:03:20;98532.53;;;13.28;78.15
16595;BME280;8410;52.532;13.336;2023-03-14T06:05:49;98535.66;;;13.86;77.77
16595;BME280;8410;52.532;13.336;2023-03-14T06:08:17;98536.59;;;13.60;77.07
16595;BME280;8410;52.532;13.336;2023-03-14T06:10:44;98534.13;;;13.32;78.54
16595;BME280;8410;52.532;13.336;2023-03-14T06:13:13;98527.94;;;13.84;76.47
16595;BME280;8410;52.532;13.336;2023-03-14T06:15:41;98531.22;;;13.66;76.93
16595;BME280;8410;52.532;13.336;2023-03-14T06:18:09;98530.16;;;13.95;75.96
16595;BME280;8410;52.532;13.336;2023-03-14T06:20:37;98519.97;;;13.67;78.00
16595;BME280;8410;52.532;13.336;2023-03-14T06:23:06;98518.84;;;13.98;75.16
16595;BME280;8410;52.532;13.336;2023-03-14T06:25:34;98532.94;;;13.65;76.63
16595;BME280;8410;52.532;13.336;2023-03-14T06:28:01;98525.13;;;13.17;76.81
16595;BME280;8410;52.532;13.336;2023-03-14T06:30:30;98528.22;;;13.53;76.47
16595;BME280;8410;52.532;13.336;2023-03-14T06:32:58;98520.66;;;13.96;76.08
16595;BME280;8410;52.532;13.336;2023-03-14T06:35:25;98524.25;;;13.92;75.84
16595;BME280;8410;52.532;13.336;2023-03-14T06:37:53;98531.97;;;13.93;76.32
16595;BME280;8410;52.532;13.336;2023-03-14T06:40:20;98528.75;;;14.10;75.00
16595;BME280;8410;52.532;13.336;2023-03-14T06:42:47;98537.50;;;14.06;74.02
16595;BME280;8410;52.532;13.336;2023-03-14T06:45:15;98539.31;;;13.80;74.86
16595;BME280;8410;52.532;13.336;2023-03-14T06:47:44;98552.38;;;13.77;75.21
16595;BME280;8410;52.532;13.336;2023-03-14T06:50:12;98555.28;;;13.92;74.99
16595;BME280;8410;52.532;13.336;2023-03-14T06:52:39;98559.44;;;14.43;73.30
16595;BME280;8410;52.532;13.336;2023-03-14T06:55:07;98566.59;;;14.36;73.57
16595;BME280;8410;52.532;13.336;2023-03-14T06:57:35;98559.91;;;14.07;73.90
16595;BME280;8410;52.532;13.336;2023-03-14T07:00:03;98557.16;;;13.88;75.77
16595;BME280;8410;52.532;13.336;2023-03-14T07:02:31;98563.72;;;14.44;73.61
16595;BME280;8410;52.532;13.336;2023-03-14T07:05:10;98563.03;;;14.62;71.91
16595;BME280;8410;52.532;13.336;2023-03-14T07:07:37;98572.78;;;14.55;72.45
16595;BME280;8410;52.532;13.336;2023-03-14T07:10:05;98562.84;;;14.43;71.91
16595;BME280;8410;52.532;13.336;2023-03-14T07:12:35;98580.59;;;14.54;71.62
16595;BME280;8410;52.532;13.336;2023-03-14T07:15:02;98576.31;;;14.29;72.22
16595;BME280;8410;52.532;13.336;2023-03-14T07:17:50;98586.09;;;13.74;73.58
16595;BME280;8410;52.532;13.336;2023-03-14T07:20:19;98582.00;;;14.39;73.18
16595;BME280;8410;52.532;13.336;2023-03-14T07:22:47;98572.50;;;14.16;73.88
16595;BME280;8410;52.532;13.336;2023-03-14T07:25:16;98580.16;;;14.19;72.33
16595;BME280;8410;52.532;13.336;2023-03-14T07:27:44;98583.81;;;14.37;73.49
16595;BME280;8410;52.532;13.336;2023-03-14T07:30:12;98590.69;;;13.66;75.61
16595;BME280;8410;52.532;13.336;2023-03-14T07:32:39;98591.19;;;14.01;75.64
16595;BME280;8410;52.532;13.336;2023-03-14T07:35:07;98601.53;;;14.48;73.38
16595;BME280;8410;52.532;13.336;2023-03-14T07:37:36;98588.44;;;14.29;72.83
16595;BME280;8410;52.532;13.336;2023-03-14T07:40:05;98594.44;;;14.06;74.07
16595;BME280;8410;52.532;13.336;2023-03-14T07:42:33;98599.06;;;14.68;72.64
16595;BME280;8410;52.532;13.336;2023-03-14T07:45:00;98595.13;;;14.34;73.51
16595;BME280;8410;52.532;13.336;2023-03-14T07:47:29;98601.31;;;14.54;72.48
16595;BME280;8410;52.532;13.336;2023-03-14T07:49:56;98597.41;;;14.42;73.23
16595;BME280;8410;52.532;13.336;2023-03-14T07:52:24;98601.63;;;13.98;73.75
16595;BME280;8410;52.532;13.336;2023-03-14T07:54:52;98606.31;;;14.35;73.86
16595;BME280;8410;52.532;13.336;2023-03-14T07:57:20;98600.34;;;14.56;73.52
16595;BME280;8410;52.532;13.336;2023-03-14T07:59:47;98604.56;;;14.12;73.54
16595;BME280;8410;52.532;13.336;2023-03-14T08:02:15;98591.91;;;14.51;73.18
16595;BME280;8410;52.532;13.336;2023-03-14T08:04:44;98591.22;;;14.70;72.16
16595;BME280;8410;52.532;13.336;2023-03-14T08:07:11;98582.47;;;14.72;71.84
16595;BME280;8410;52.532;13.336;2023-03-14T08:09:39;98576.53;;;14.92;71.27
16595;BME280;8410;52.532;13.336;2023-03-14T08:12:08;98571.84;;;15.22;70.80
16595;BME280;8410;52.532;13.336;2023-03-14T08:14:35;98564.47;;;15.54;70.27
16595;BME280;8410;52.532;13.336;2023-03-14T08:17:04;98554.47;;;15.65;69.22
16595;BME280;8410;52.532;13.336;2023-03-14T08:19:34;98566.63;;;15.02;71.10
16595;BME280;8410;52.532;13.336;2023-03-14T08:22:01;98559.66;;;15.86;69.86
16595;BME280;8410;52.532;13.336;2023-03-14T08:24:29;98566.66;;;15.84;69.00
16595;BME280;8410;52.532;13.336;2023-03-14T08:26:57;98568.28;;;15.46;69.66
16595;BME280;8410;52.532;13.336;2023-03-14T08:29:25;98577.03;;;15.43;70.01
16595;BME280;8410;52.532;13.336;2023-03-14T08:31:53;98571.13;;;15.60;69.39
16595;BME280;8410;52.532;13.336;2023-03-14T08:34:21;98574.22;;;15.70;68.89
16595;BME280;8410;52.532;13.336;2023-03-14T08:36:48;98580.28;;;15.48;69.41
16595;BME280;8410;52.532;13.336;2023-03-14T08:39:16;98576.91;;;15.46;69.95
16595;BME280;8410;52.532;13.336;2023-03-14T08:41:43;98574.56;;;15.60;68.80
16595;BME280;8410;52.532;13.336;2023-03-14T08:44:11;98594.00;;;14.65;71.88
16595;BME280;8410;52.532;13.336;2023-03-14T08:46:40;98586.66;;;15.61;69.37
16595;BME280;8410;52.532;13.336;2023-03-14T08:49:08;98591.06;;;14.04;72.93
16595;BME280;8410;52.532;13.336;2023-03-14T08:51:35;98598.38;;;14.85;71.59
16595;BME280;8410;52.532;13.336;2023-03-14T08:54:03;98592.44;;;15.26;69.93
16595;BME280;8410;52.532;13.336;2023-03-14T08:56:30;98608.81;;;14.84;72.19
16595;BME280;8410;52.532;13.336;2023-03-14T08:58:57;98611.16;;;14.21;72.29
16595;BME280;8410;52.532;13.336;2023-03-14T09:01:25;98617.22;;;14.89;71.84
16595;BME280;8410;52.532;13.336;2023-03-14T09:03:54;98620.31;;;14.29;72.80
16595;BME280;8410;52.532;13.336;2023-03-14T09:06:22;98608.59;;;14.43;72.73
16595;BME280;8410;52.532;13.336;2023-03-14T09:08:49;98601.41;;;15.39;69.85
16595;BME280;8410;52.532;13.336;2023-03-14T09:11:16;98587.25;;;15.26;69.85
16595;BME280;8410;52.532;13.336;2023-03-14T09:13:44;98590.97;;;14.98;70.46
16595;BME280;8410;52.532;13.336;2023-03-14T09:16:12;98581.69;;;15.14;69.14
16595;BME280;8410;52.532;13.336;2023-03-14T09:18:39;98569.91;;;15.89;67.23
16595;BME280;8410;52.532;13.336;2023-03-14T09:21:08;98569.22;;;15.85;66.13
16595;BME280;8410;52.532;13.336;2023-03-14T09:23:36;98578.47;;;15.91;66.64
16595;BME280;8410;52.532;13.336;2023-03-14T09:26:03;98560.13;;;15.55;67.44
16595;BME280;8410;52.532;13.336;2023-03-14T09:28:31;98558.88;;;15.63;67.74
16595;BME280;8410;52.532;13.336;2023-03-14T09:31:05;98561.63;;;15.81;66.87
16595;BME280;8410;52.532;13.336;2023-03-14T09:33:34;98563.19;;;15.24;68.09
16595;BME280;8410;52.532;13.336;2023-03-14T09:36:02;98566.03;;;15.58;66.95
16595;BME280;8410;52.532;13.336;2023-03-14T09:38:31;98561.94;;;15.32;68.02
16595;BME280;8410;52.532;13.336;2023-03-14T09:41:00;98554.94;;;16.34;66.38
16595;BME280;8410;52.532;13.336;2023-03-14T09:43:30;98551.25;;;16.57;64.45
16595;BME280;8410;52.532;13.336;2023-03-14T09:46:00;98563.03;;;15.68;66.19
16595;BME280;8410;52.532;13.336;2023-03-14T09:48:31;98563.59;;;15.95;66.50
16595;BME280;8410;52.532;13.336;2023-03-14T09:51:03;98564.84;;;14.82;67.22
16595;BME280;8410;52.532;13.336;2023-03-14T09:53:37;98562.25;;;15.25;67.23
16595;BME280;8410;52.532;13.336;2023-03-14T09:56:11;98566.41;;;15.49;67.07
16595;BME280;8410;52.532;13.336;2023-03-14T09:58:41;98567.03;;;15.95;66.35
16595;BME280;8410;52.532;13.336;2023-03-14T10:01:13;98574.97;;;15.51;65.92
16595;BME280;8410;52.532;13.336;2023-03-14T10:03:44;98569.06;;;15.88;65.97
16595;BME280;8410;52.532;13.336;2023-03-14T10:06:13;98568.78;;;15.95;65.87
16595;BME280;8410;52.532;13.336;2023-03-14T10:08:43;98566.72;;;16.22;64.10
16595;BME280;8410;52.532;13.336;2023-03-14T10:11:14;98577.91;;;16.03;64.52
16595;BME280;8410;52.532;13.336;2023-03-14T10:13:52;98579.00;;;15.79;66.01
16595;BME280;8410;52.532;13.336;2023-03-14T10:16:30;98579.88;;;15.98;64.85
16595;BME280;8410;52.532;13.336;2023-03-14T10:19:03;98577.75;;;15.47;65.00
16595;BME280;8410;52.532;13.336;2023-03-14T10:21:36;98574.78;;;16.16;65.21
16595;BME280;8410;52.532;13.336;2023-03-14T10:24:18;98572.94;;;15.99;64.83
16595;BME280;8410;52.532;13.336;2023-03-14T10:26:48;98563.06;;;16.07;63.91
16595;BME280;8410;52.532;13.336;2023-03-14T10:29:17;98567.41;;;16.06;64.56
16595;BME280;8410;52.532;13.336;2023-03-14T10:31:50;98574.31;;;15.87;65.62
16595;BME280;8410;52.532;13.336;2023-03-14T10:34:24;98577.59;;;15.72;65.30
16595;BME280;8410;52.532;13.336;2023-03-14T10:36:54;98579.16;;;15.95;64.87
16595;BME280;8410;52.532;13.336;2023-03-14T10:39:34;98575.63;;;15.77;65.22
16595;BME280;8410;52.532;13.336;2023-03-14T10:42:12;98579.50;;;15.87;64.24
16595;BME280;8410;52.532;13.336;2023-03-14T10:44:42;98578.78;;;16.23;63.10
16595;BME280;8410;52.532;13.336;2023-03-14T10:47:16;98581.97;;;15.49;64.62
16595;BME280;8410;52.532;13.336;2023-03-14T10:49:45;98594.06;;;15.28;65.48
16595;BME280;8410;52.532;13.336;2023-03-14T10:52:17;98583.53;;;15.74;64.00
16595;BME280;8410;52.532;13.336;2023-03-14T10:54:49;98583.25;;;15.59;64.38
16595;BME280;8410;52.532;13.336;2023-03-14T10:57:19;98577.59;;;15.72;64.72
16595;BME280;8410;52.532;13.336;2023-03-14T10:59:46;98575.41;;;15.61;65.36
16595;BME280;8410;52.532;13.336;2023-03-14T11:02:31;98577.81;;;15.65;64.46
16595;BME280;8410;52.532;13.336;2023-03-14T11:05:15;98572.63;;;16.06;64.04
16595;BME280;8410;52.532;13.336;2023-03-14T11:07:46;98582.47;;;14.72;66.77
16595;BME280;8410;52.532;13.336;2023-03-14T11:10:19;98580.13;;;15.31;66.72
16595;BME280;8410;52.532;13.336;2023-03-14T11:12:57;98577.94;;;15.62;65.17
16595;BME280;8410;52.532;13.336;2023-03-14T11:15:31;98575.38;;;15.83;64.77
16595;BME280;8410;52.532;13.336;2023-03-14T11:18:16;98578.72;;;15.64;64.70
16595;BME280;8410;52.532;13.336;2023-03-14T11:20:52;98578.91;;;15.19;66.00
16595;BME280;8410;52.532;13.336;2023-03-14T11:23:24;98565.50;;;15.71;64.40
16595;BME280;8410;52.532;13.336;2023-03-14T11:25:58;98570.34;;;15.17;66.51
16595;BME280;8410;52.532;13.336;2023-03-14T11:28:31;98569.50;;;15.57;65.67
16595;BME280;8410;52.532;13.336;2023-03-14T11:31:04;98563.50;;;15.77;63.90
16595;BME280;8410;52.532;13.336;2023-03-14T11:33:37;98561.72;;;15.57;64.59
16595;BME280;8410;52.532;13.336;2023-03-14T11:36:07;98561.50;;;16.22;63.84
16595;BME280;8410;52.532;13.336;2023-03-14T11:38:38;98561.81;;;16.16;63.35
16595;BME280;8410;52.532;13.336;2023-03-14T11:41:14;98565.03;;;16.21;64.05
16595;BME280;8410;52.532;13.336;2023-03-14T11:43:47;98562.13;;;15.69;66.22
16595;BME280;8410;52.532;13.336;2023-03-14T11:46:19;98560.94;;;15.55;66.14
16595;BME280;8410;52.532;13.336;2023-03-14T11:48:57;98557.19;;;15.62;66.93
16595;BME280;8410;52.532;13.336;2023-03-14T11:51:29;98561.81;;;16.16;65.71
16595;BME280;8410;52.532;13.336;2023-03-14T11:54:01;98558.75;;;15.46;68.16
16595;BME280;8410;52.532;13.336;2023-03-14T11:56:35;98561.66;;;16.19;66.76
16595;BME280;8410;52.532;13.336;2023-03-14T11:59:09;98553.06;;;15.58;67.32
16595;BME280;8410;52.532;13.336;2023-03-14T12:01:52;98561.94;;;16.31;66.47
16595;BME280;8410;52.532;13.336;2023-03-14T12:04:35;98546.22;;;15.97;65.90
16595;BME280;8410;52.532;13.336;2023-03-14T12:07:17;98555.19;;;16.46;67.01
16595;BME280;8410;52.532;13.336;2023-03-14T12:09:47;98544.50;;;15.96;66.63
16595;BME280;8410;52.532;13.336;2023-03-14T12:12:19;98547.06;;;15.97;67.37
16595;BME280;8410;52.532;13.336;2023-03-14T12:14:54;98555.75;;;15.96;68.62
16595;BME280;8410;52.532;13.336;2023-03-14T12:17:24;98549.44;;;16.59;66.47
16595;BME280;8410;52.532;13.336;2023-03-14T12:20:04;98542.41;;;16.61;66.43
16595;BME280;8410;52.532;13.336;2023-03-14T12:22:35;98546.25;;;16.71;66.49
16595;BME280;8410;52.532;13.336;2023-03-14T12:25:14;98547.69;;;16.02;67.27
16595;BME280;8410;52.532;13.336;2023-03-14T12:28:02;98541.97;;;16.70;66.04
16595;BME280;8410;52.532;13.336;2023-03-14T12:30:32;98534.53;;;17.16;64.48
16595;BME280;8410;52.532;13.336;2023-03-14T12:33:33;98533.88;;;16.95;64.57
16595;BME280;8410;52.532;13.336;2023-03-14T12:36:03;98536.41;;;17.14;64.30
16595;BME280;8410;52.532;13.336;2023-03-14T12:38:49;98529.97;;;17.04;65.65
16595;BME280;8410;52.532;13.336;2023-03-14T12:41:21;98530.41;;;16.77;65.95
16595;BME280;8410;52.532;13.336;2023-03-14T12:43:52;98543.69;;;16.14;67.71
16595;BME280;8410;52.532;13.336;2023-03-14T12:46:22;98535.91;;;16.33;66.62
16595;BME280;8410;52.532;13.336;2023-03-14T12:48:54;98534.56;;;16.43;65.66
16595;BME280;8410;52.532;13.336;2023-03-14T12:51:29;98539.47;;;16.12;67.29
16595;BME280;8410;52.532;13.336;2023-03-14T12:54:25;98523.50;;;16.21;67.67
16595;BME280;8410;52.532;13.336;2023-03-14T12:57:13;98526.72;;;16.45;66.38
16595;BME280;8410;52.532;13.336;2023-03-14T12:59:47;98533.97;;;17.11;65.03
16595;BME280;8410;52.532;13.336;2023-03-14T13:02:22;98533.00;;;16.58;66.89
16595;BME280;8410;52.532;13.336;2023-03-14T13:04:53;98529.28;;;17.17;67.56
16595;BME280;8410;52.532;13.336;2023-03-14T13:07:35;98538.38;;;17.09;69.70
16595;BME280;8410;52.532;13.336;2023-03-14T13:10:15;98541.72;;;16.93;71.30
16595;BME280;8410;52.532;13.336;2023-03-14T13:12:49;98530.88;;;16.85;71.74
16595;BME280;8410;52.532;13.336;2023-03-14T13:15:22;98521.09;;;17.25;70.57
16595;BME280;8410;52.532;13.336;2023-03-14T13:17:51;98529.47;;;16.78;71.49